MET'MAP v2.0
soon released !

Expected late october,
this new version will be
more efficient, smarter,
and hosted on a brand new
server x3 powerfull...
...and still free !


Not compatible ?
Try the mobile version !

LOG IN : | Subscribe | Disclaimer | Who is Orbifly ? |
ICAO code :

TAF - LGTG Tanagra - 03 Apr 2020 22:10 UTC - Data Source NOAA   


- Airport Elevation : 485 ft
- No reported NOTAMs.


LGTG - Tanagra

Latest METAR recorded : 2015/08/11 07:50 LGTG 110750Z 00000KT CAVOK 31/11 Q1012 BLU
TAF TAF LGTG
Valid from the 03 at 18:00 until the 04 at 03:00 UTC


031700Z 0318/0403 13008KT 9999 SCT025 BKN070
PROB30
TEMPO 0318/0403 6000 RA
BECMG 0401/0403 26008KT

Source NOAA


MET'MAP, your aeronautical weather chart ! - Copyright ORBIFLY December 2007

Programming & Development : Alexandra Zaïnal
Co-Developer : Marc-Olivier Méhu
Technical & hardware support : Manuel Goepfert
Concept & Financing : Baudouin d'Aumeries